Terminal Aerodrome Forecast
Issued by NWS

Home | Current Version | Previous Version | Text Only | Print | Product List | Glossary On
Versions: 1 2 3 4 5 6 7 8 9 10 11 12 13 14 15 16 17 18 19 20 21 22 23 24 25 26 27 28 29 30 31 32 33 34 35 36
376
FTUS45 KCYS 291132
TAFAIA
TAF
KAIA 291132Z 2912/3012 VRB03KT P6SM SCT100
      TEMPO 2912/2915 3/4SM BR VV002
     FM291800 16008KT P6SM BKN100
     FM300000 15006KT P6SM VCTS BKN100CB
     FM300500 16005KT P6SM BKN100=

USA.gov is the U.S. government's official web portal to all federal, state and local government web resources and services.